createdAt,value
2019-03-30T00:00:09.066Z,102089.54
2019-03-30T00:05:04.372Z,102085.92
2019-03-30T00:09:58.447Z,102089.75
2019-03-30T00:14:52.564Z,102080.14
2019-03-30T00:19:47.159Z,102076.97
2019-03-30T00:24:41.323Z,102075.48
2019-03-30T00:29:35.312Z,102072.50
2019-03-30T00:34:29.421Z,102071.49
2019-03-30T00:39:23.501Z,102067.90
2019-03-30T00:44:17.457Z,102063.45
2019-03-30T00:49:11.541Z,102058.53
2019-03-30T00:54:05.517Z,102054.94
2019-03-30T00:58:59.630Z,102060.75
2019-03-30T01:03:53.633Z,102063.70
2019-03-30T01:08:47.890Z,102055.56
2019-03-30T01:13:42.018Z,102042.17
2019-03-30T01:18:36.348Z,102043.70
2019-03-30T01:23:30.434Z,102048.06
2019-03-30T01:28:24.995Z,102032.32
2019-03-30T01:33:19.057Z,102031.47
2019-03-30T01:38:13.029Z,102034.00
2019-03-30T01:43:06.991Z,102030.30
2019-03-30T01:48:00.959Z,102023.52
2019-03-30T01:52:55.043Z,102022.61
2019-03-30T01:57:49.233Z,102015.22
2019-03-30T02:02:43.328Z,102010.88
2019-03-30T02:07:37.508Z,102003.04
2019-03-30T02:12:31.437Z,102005.20
2019-03-30T02:17:25.404Z,101993.66
2019-03-30T02:22:19.364Z,101998.78
2019-03-30T02:27:13.439Z,101995.05
2019-03-30T02:32:07.606Z,102000.39
2019-03-30T02:37:01.583Z,101996.78
2019-03-30T02:41:55.561Z,101986.48
2019-03-30T02:46:49.526Z,101992.97
2019-03-30T02:51:43.479Z,101995.89
2019-03-30T02:56:37.474Z,101991.09
2019-03-30T03:01:31.465Z,101989.50
2019-03-30T03:06:25.537Z,101989.17
2019-03-30T03:11:19.646Z,101991.25
2019-03-30T03:16:13.643Z,101983.81
2019-03-30T03:21:08.738Z,101983.63
2019-03-30T03:26:03.165Z,101983.08
2019-03-30T03:30:57.581Z,101975.16
2019-03-30T03:35:51.545Z,101978.17
2019-03-30T03:40:45.520Z,101974.73
2019-03-30T03:45:39.689Z,101969.98
2019-03-30T03:50:41.720Z,101969.14
2019-03-30T03:55:35.777Z,101965.14
2019-03-30T04:00:29.853Z,101961.64
2019-03-30T04:05:25.742Z,101957.82
2019-03-30T04:10:21.726Z,101953.20
2019-03-30T04:15:23.095Z,101947.31
2019-03-30T04:20:22.285Z,101945.72
2019-03-30T04:25:16.240Z,101939.21
2019-03-30T04:30:10.198Z,101934.98
2019-03-30T04:35:04.567Z,101940.47
2019-03-30T04:39:58.558Z,101940.05
2019-03-30T04:44:52.790Z,101934.84
2019-03-30T04:49:46.744Z,101931.32
2019-03-30T04:54:40.752Z,101930.22
2019-03-30T04:59:34.737Z,101921.84
2019-03-30T05:04:28.761Z,101920.58
2019-03-30T05:09:22.729Z,101920.76
2019-03-30T05:14:17.145Z,101908.85
2019-03-30T05:19:11.371Z,101915.91
2019-03-30T05:24:05.393Z,101913.00
2019-03-30T05:28:59.362Z,101913.66
2019-03-30T05:33:53.358Z,101915.64
2019-03-30T05:38:47.542Z,101917.11
2019-03-30T05:43:41.544Z,101909.03
2019-03-30T05:48:35.476Z,101909.70
2019-03-30T05:53:29.506Z,101897.75
2019-03-30T05:58:23.457Z,101884.90
2019-03-30T06:03:17.689Z,101886.48
2019-03-30T06:08:11.661Z,101883.20
2019-03-30T06:13:05.661Z,101892.98
2019-03-30T06:17:59.859Z,101894.42
2019-03-30T06:22:53.833Z,101893.99
2019-03-30T06:27:47.795Z,101878.73
2019-03-30T06:32:43.551Z,101889.66
2019-03-30T06:37:37.594Z,101895.19
2019-03-30T06:42:31.695Z,101900.41
2019-03-30T06:47:25.779Z,101899.98
2019-03-30T06:52:19.921Z,101893.30
2019-03-30T06:57:13.892Z,101900.21
2019-03-30T07:02:08.539Z,101903.42
2019-03-30T07:07:02.671Z,101903.17
2019-03-30T07:11:58.338Z,101904.00
2019-03-30T07:16:53.516Z,101899.11
2019-03-30T07:21:47.605Z,101900.52
2019-03-30T07:26:41.649Z,101899.30
2019-03-30T07:31:35.633Z,101898.56
2019-03-30T07:36:29.616Z,101899.64
2019-03-30T07:41:23.632Z,101894.13
2019-03-30T07:46:19.629Z,101897.91
2019-03-30T07:51:13.601Z,101892.61
2019-03-30T07:56:08.849Z,101890.45
2019-03-30T08:01:02.994Z,101889.45
2019-03-30T08:05:57.082Z,101885.64
2019-03-30T08:10:51.059Z,101888.34
2019-03-30T08:15:45.143Z,101884.97
2019-03-30T08:20:39.234Z,101882.48
2019-03-30T08:25:33.225Z,101876.78
2019-03-30T08:30:27.297Z,101875.67
2019-03-30T08:35:21.360Z,101868.40
2019-03-30T08:40:15.322Z,101871.09
2019-03-30T08:45:09.715Z,101875.36
2019-03-30T08:50:06.296Z,101864.09
2019-03-30T08:55:00.379Z,101863.56
2019-03-30T08:59:54.476Z,101867.71
2019-03-30T09:04:48.584Z,101875.02
2019-03-30T09:09:42.680Z,101865.26
2019-03-30T09:14:36.650Z,101863.52
2019-03-30T09:19:30.732Z,101861.84
2019-03-30T09:24:24.812Z,101860.95
2019-03-30T09:29:20.051Z,101862.11
2019-03-30T09:34:14.129Z,101855.92
2019-03-30T09:39:08.432Z,101837.30
2019-03-30T09:44:02.716Z,101839.75
2019-03-30T09:48:56.710Z,101835.94
2019-03-30T09:53:50.998Z,101829.20
2019-03-30T09:58:45.425Z,101824.53
2019-03-30T10:03:39.527Z,101816.14
2019-03-30T10:08:33.522Z,101816.31
2019-03-30T10:13:27.470Z,101822.77
2019-03-30T10:18:21.448Z,101809.66
2019-03-30T10:23:15.662Z,101808.66
2019-03-30T10:28:09.672Z,101805.50
2019-03-30T10:33:03.659Z,101803.20
2019-03-30T10:37:57.651Z,101798.72
2019-03-30T10:42:51.736Z,101795.16
2019-03-30T10:47:45.721Z,101782.92
2019-03-30T10:52:39.733Z,101783.96
2019-03-30T10:57:33.698Z,101781.89
2019-03-30T11:02:27.699Z,101770.30
2019-03-30T11:07:21.765Z,101774.89
2019-03-30T11:12:15.739Z,101759.45
2019-03-30T11:17:09.752Z,101765.08
2019-03-30T11:22:03.744Z,101765.55
2019-03-30T11:26:57.746Z,101743.94
2019-03-30T11:31:51.711Z,101746.36
2019-03-30T11:36:45.695Z,101740.95
2019-03-30T11:41:39.663Z,101740.58
2019-03-30T11:46:33.758Z,101734.61
2019-03-30T11:51:27.722Z,101722.75
2019-03-30T11:56:21.684Z,101711.77
2019-03-30T12:01:15.675Z,101719.64
2019-03-30T12:06:09.901Z,101712.22
2019-03-30T12:11:03.990Z,101711.81
2019-03-30T12:15:58.303Z,101704.94
2019-03-30T12:20:52.282Z,101702.52
2019-03-30T12:25:46.393Z,101703.14
2019-03-30T12:30:40.569Z,101694.91
2019-03-30T12:35:34.718Z,101687.06
2019-03-30T12:40:28.710Z,101684.09
2019-03-30T12:45:22.830Z,101682.00
2019-03-30T12:50:16.940Z,101667.35
2019-03-30T12:55:11.114Z,101665.66
2019-03-30T13:00:06.025Z,101654.37
2019-03-30T13:05:00.060Z,101649.71
2019-03-30T13:09:54.193Z,101649.86
2019-03-30T13:14:48.317Z,101649.00
2019-03-30T13:19:42.299Z,101656.44
2019-03-30T13:24:36.393Z,101640.28
2019-03-30T13:29:30.690Z,101647.30
2019-03-30T13:34:24.658Z,101644.11
2019-03-30T13:39:18.654Z,101626.72
2019-03-30T13:44:12.750Z,101631.33
2019-03-30T13:49:06.774Z,101628.41
2019-03-30T13:54:01.229Z,101616.86
2019-03-30T13:58:55.212Z,101624.09
2019-03-30T14:03:49.210Z,101610.00
2019-03-30T14:08:43.228Z,101610.89
2019-03-30T14:13:37.239Z,101603.53
2019-03-30T14:18:31.492Z,101594.25
2019-03-30T14:23:25.664Z,101601.47
2019-03-30T14:28:19.989Z,101592.40
2019-03-30T14:33:20.244Z,101589.51
2019-03-30T14:38:14.261Z,101588.73
2019-03-30T14:43:08.346Z,101578.82
2019-03-30T14:48:02.604Z,101563.27
2019-03-30T14:52:56.681Z,101566.27
2019-03-30T14:57:50.757Z,101578.58
2019-03-30T15:02:44.871Z,101573.48
2019-03-30T15:07:39.061Z,101560.88
2019-03-30T15:12:33.095Z,101560.62
2019-03-30T15:17:27.104Z,101561.61
2019-03-30T15:22:21.107Z,101543.50
2019-03-30T15:27:15.344Z,101564.27
2019-03-30T15:32:09.428Z,101549.05
2019-03-30T15:37:03.661Z,101546.11
2019-03-30T15:41:57.954Z,101540.27
2019-03-30T15:46:51.924Z,101545.95
2019-03-30T15:51:45.959Z,101536.92
2019-03-30T15:56:39.951Z,101538.56
2019-03-30T16:01:33.959Z,101533.14
2019-03-30T16:06:28.093Z,101537.64
2019-03-30T16:11:22.325Z,101531.02
2019-03-30T16:16:16.319Z,101528.91
2019-03-30T16:21:10.594Z,101530.78
2019-03-30T16:26:04.975Z,101533.55
2019-03-30T16:30:59.186Z,101529.25
2019-03-30T16:35:53.187Z,101532.13
2019-03-30T16:40:47.258Z,101533.90
2019-03-30T16:45:41.244Z,101529.66
2019-03-30T16:50:35.259Z,101532.36
2019-03-30T16:55:29.232Z,101529.84
2019-03-30T17:00:23.450Z,101531.83
2019-03-30T17:05:17.473Z,101525.17
2019-03-30T17:10:11.793Z,101524.50
2019-03-30T17:15:06.111Z,101538.02
2019-03-30T17:20:00.168Z,101537.37
2019-03-30T17:24:54.480Z,101540.02
2019-03-30T17:29:48.809Z,101540.72
2019-03-30T17:34:42.788Z,101541.63
2019-03-30T17:39:36.906Z,101537.35
2019-03-30T17:45:46.813Z,101537.42
2019-03-30T17:50:41.037Z,101546.44
2019-03-30T19:00:06.051Z,101599.43
2019-03-30T19:05:00.393Z,101607.64
2019-03-30T19:09:54.498Z,101610.31
2019-03-30T19:16:15.560Z,101607.13
2019-03-30T19:21:09.594Z,101603.55
2019-03-30T19:26:03.647Z,101610.94
2019-03-30T19:30:57.629Z,101609.89
2019-03-30T19:35:51.698Z,101615.94
2019-03-30T19:40:45.694Z,101619.92
2019-03-30T19:45:39.679Z,101618.82
2019-03-30T19:50:33.704Z,101621.30
2019-03-30T19:55:28.095Z,101617.09
2019-03-30T20:00:22.308Z,101623.25
2019-03-30T20:05:16.564Z,101627.35
2019-03-30T20:10:10.985Z,101621.62
2019-03-30T20:15:44.052Z,101616.96
2019-03-30T20:20:38.096Z,101621.38
2019-03-30T20:25:32.099Z,101627.98
2019-03-30T20:30:26.083Z,101620.77
2019-03-30T20:35:20.190Z,101626.59
2019-03-30T20:40:14.392Z,101621.47
2019-03-30T20:45:53.519Z,101626.84
2019-03-30T20:50:47.692Z,101625.95
2019-03-30T20:55:41.664Z,101628.41
2019-03-30T21:00:35.657Z,101626.16
2019-03-30T21:05:29.648Z,101634.98
2019-03-30T21:10:23.617Z,101637.96
2019-03-30T21:15:17.827Z,101636.89
2019-03-30T21:20:13.051Z,101645.52
2019-03-30T21:25:07.340Z,101643.11
2019-03-30T21:30:03.745Z,101651.23
2019-03-30T21:34:57.777Z,101654.70
2019-03-30T21:39:51.802Z,101652.91
2019-03-30T21:44:45.942Z,101651.99
2019-03-30T21:49:40.235Z,101643.26
2019-03-30T21:54:34.302Z,101642.23
2019-03-30T21:59:28.395Z,101653.07
2019-03-30T22:04:23.647Z,101665.14
2019-03-30T22:09:17.957Z,101664.45
2019-03-30T22:14:13.582Z,101669.41
2019-03-30T22:19:07.637Z,101666.19
2019-03-30T22:24:01.801Z,101672.17
2019-03-30T22:28:55.879Z,101666.67
2019-03-30T22:33:49.976Z,101666.39
2019-03-30T22:38:44.018Z,101663.29
2019-03-30T22:43:37.991Z,101663.11
2019-03-30T22:48:32.000Z,101674.27
2019-03-30T22:53:25.977Z,101676.34
2019-03-30T22:58:19.978Z,101677.28
2019-03-30T23:03:14.141Z,101678.25
2019-03-30T23:08:08.189Z,101672.05
2019-03-30T23:13:02.279Z,101684.38
2019-03-30T23:17:56.320Z,101680.66
2019-03-30T23:22:50.304Z,101678.95
2019-03-30T23:27:44.448Z,101681.57
2019-03-30T23:32:38.392Z,101675.29
2019-03-30T23:37:32.417Z,101677.47
2019-03-30T23:42:26.423Z,101668.75
2019-03-30T23:47:20.710Z,101666.80
2019-03-30T23:52:14.711Z,101661.07
2019-03-30T23:57:08.794Z,101662.83
